Haiku, Hawaii
Current Conditions -  °F | °C
As of 11:54 PM on Thursday 18 Dec 2014 (Local Time) from PHOG Reporting Station
Scattered Clouds Scattered Clouds  
Wind Chill: 73°   Ceiling: Unl
Heat Index: 73°   Visibility: 10mi
Dew Point: 66°   Wind: 20mph
Humidity: 79%   Direction: 60°ENE
Pressure: 30.12"   Gusts: 30mph
Location:  20.91°N, 156.32°W
Report Text: PHOG 190954Z AUTO 06017G26KT 10SM SCT055 23/19 A3012 RMK AO2 PK WND 04029/0918 SLP205 T02280189 402780211 TSNO $
Loading
Personal Weather Stations






























Interactive Weather Map New forecast layout! Learn more

10-Day Weather Forecast

Advertisements
Track Severe Weather on mobile